Time;durP1;ratioP1;P1;durP2;ratioP2;P2;SDS_P1;SDS_P2;PMS_P1;PMS_P2;Temp;Humidity;BMP_temperature;BMP_pressure;BME280_temperature;BME280_humidity;BME280_pressure;Samples;Min_cycle;Max_cycle;Signal;HPM_P1;HPM_P2
2022/09/09 00:02:20;;;;;;;5.55;2.90;;;;;;;-145.50;100.00;65435.88;5063936;28;20041;-61
2022/09/09 00:05:01;;;;;;;5.55;2.92;;;;;;;-145.50;100.00;65435.88;5066010;28;20155;-61
2022/09/09 00:07:50;;;;;;;6.47;3.08;;;;;;;-145.50;100.00;65435.88;5054495;28;20637;-61
2022/09/09 00:10:33;;;;;;;5.63;2.90;;;;;;;-145.50;100.00;65435.88;5066109;28;20045;-59
2022/09/09 00:13:11;;;;;;;6.18;2.40;;;;;;;-145.50;100.00;65435.88;5055270;28;20110;-62
2022/09/09 00:15:54;;;;;;;4.38;2.40;;;;;;;-145.50;100.00;65435.88;5067915;28;20481;-61
2022/09/09 00:18:39;;;;;;;2.83;2.08;;;;;;;-145.50;100.00;65435.88;5055336;28;20055;-61
2022/09/09 00:21:07;;;;;;;4.53;2.60;;;;;;;-145.50;100.00;65435.88;5064423;28;20098;-61
2022/09/09 00:23:54;;;;;;;3.33;2.30;;;;;;;-145.50;100.00;65435.88;5058338;28;20049;-61
2022/09/09 00:26:50;;;;;;;4.77;2.20;;;;;;;-145.50;100.00;65435.88;5073772;28;20071;-61
2022/09/09 00:29:35;;;;;;;3.35;1.95;;;;;;;-145.50;100.00;65435.88;5062649;28;20048;-61
2022/09/09 00:32:12;;;;;;;5.57;2.30;;;;;;;-145.50;100.00;65435.88;5068950;28;20101;-61
2022/09/09 00:34:50;;;;;;;2.90;2.03;;;;;;;-145.50;100.00;65435.88;5061440;28;20072;-61
2022/09/09 00:37:19;;;;;;;3.97;2.40;;;;;;;-145.50;100.00;65435.88;5057600;28;20463;-61
2022/09/09 00:39:47;;;;;;;;;;;;;;;-145.50;100.00;65435.88;5072104;28;20045;-61
2022/09/09 00:42:23;;;;;;;4.10;2.25;;;;;;;-145.50;100.00;65435.88;5061509;28;19943;-61
2022/09/09 00:44:58;;;;;;;5.65;2.67;;;;;;;-145.50;100.00;65435.88;5069326;28;20754;-61
2022/09/09 00:47:45;;;;;;;4.85;2.35;;;;;;;-145.50;100.00;65435.88;5048259;28;20067;-61
2022/09/09 00:50:46;;;;;;;4.45;2.30;;;;;;;-145.50;100.00;65435.88;5067780;28;20471;-61
2022/09/09 00:53:27;;;;;;;5.18;2.35;;;;;;;-145.50;100.00;65435.88;5055580;28;20048;-61
2022/09/09 00:56:07;;;;;;;3.40;2.25;;;;;;;-145.50;100.00;65435.88;5067459;28;20045;-61
2022/09/09 00:58:33;;;;;;;4.15;2.05;;;;;;;-145.50;100.00;65435.88;5063936;28;20082;-61
2022/09/09 01:01:11;;;;;;;3.08;2.20;;;;;;;-145.50;100.00;65435.88;5056441;28;20052;-61
2022/09/09 01:03:53;;;;;;;3.88;2.13;;;;;;;-145.50;100.00;65435.88;5058768;28;20056;-61
2022/09/09 01:06:33;;;;;;;3.90;2.33;;;;;;;-145.50;100.00;65435.88;5062030;28;20044;-61
2022/09/09 01:09:22;;;;;;;3.65;2.17;;;;;;;-145.50;100.00;65435.88;5063229;28;20110;-61
2022/09/09 01:12:06;;;;;;;5.00;2.03;;;;;;;-145.50;100.00;65435.88;5073453;28;20052;-61
2022/09/09 01:14:41;;;;;;;3.22;1.50;;;;;;;-145.50;100.00;65435.88;5052856;28;20049;-61
2022/09/09 01:17:10;;;;;;;4.65;2.20;;;;;;;-145.50;100.00;65435.88;5059709;28;20552;-62
2022/09/09 01:19:43;;;;;;;3.45;2.17;;;;;;;-145.50;100.00;65435.88;5069951;28;20045;-61
2022/09/09 01:22:22;;;;;;;4.93;2.10;;;;;;;-145.50;100.00;65435.88;5062618;28;20048;-60
2022/09/09 01:25:18;;;;;;;5.07;2.30;;;;;;;-145.50;100.00;65435.88;5062140;28;20570;-61
2022/09/09 01:27:48;;;;;;;4.38;1.80;;;;;;;-145.50;100.00;65435.88;5066074;28;20360;-60
2022/09/09 01:30:17;;;;;;;5.63;1.90;;;;;;;-145.50;100.00;65435.88;5071267;28;20044;-59
2022/09/09 01:32:50;;;;;;;3.78;1.63;;;;;;;-145.50;100.00;65435.88;5063388;28;20098;-62
2022/09/09 01:35:42;;;;;;;2.42;1.50;;;;;;;-145.50;100.00;65435.88;5072661;28;20193;-59
2022/09/09 01:38:09;;;;;;;4.00;1.88;;;;;;;-145.50;100.00;65435.88;5062074;28;20555;-61
2022/09/09 01:40:36;;;;;;;1.83;1.58;;;;;;;-145.50;100.00;65435.88;5068716;28;20052;-60
2022/09/09 01:43:03;;;;;;;3.90;1.65;;;;;;;-145.50;100.00;65435.88;5067080;28;20630;-60
2022/09/09 01:45:30;;;;;;;2.08;1.42;;;;;;;-145.50;100.00;65435.88;5081023;28;20454;-61
2022/09/09 01:47:57;;;;;;;3.13;1.60;;;;;;;-145.50;100.00;65435.88;5075892;28;20044;-61
2022/09/09 01:50:24;;;;;;;2.75;1.40;;;;;;;-145.50;100.00;65435.88;5058958;28;20464;-61
2022/09/09 01:52:55;;;;;;;2.40;1.63;;;;;;;-145.50;100.00;65435.88;5067668;28;20485;-61
2022/09/09 01:55:38;;;;;;;3.55;1.75;;;;;;;-145.50;100.00;65435.88;5057784;28;20114;-61
2022/09/09 01:58:14;;;;;;;3.80;1.55;;;;;;;-145.50;100.00;65435.88;5067285;28;20455;-61
2022/09/09 02:00:50;;;;;;;6.53;1.80;;;;;;;-145.50;100.00;65435.88;5070346;28;20051;-61
2022/09/09 02:03:24;;;;;;;2.30;1.50;;;;;;;-145.50;100.00;65435.88;5068329;28;20405;-61
2022/09/09 02:06:25;;;;;;;3.13;1.65;;;;;;;-145.50;100.00;65435.88;5050161;28;20052;-60
2022/09/09 02:08:59;;;;;;;2.83;1.65;;;;;;;-145.50;100.00;65435.88;5061262;28;20045;-61
2022/09/09 02:11:28;;;;;;;2.83;1.70;;;;;;;-145.50;100.00;65435.88;5067933;28;20056;-61
2022/09/09 02:14:01;;;;;;;3.40;1.90;;;;;;;-145.50;100.00;65435.88;5067284;28;20075;-61
2022/09/09 02:16:50;;;;;;;2.00;1.77;;;;;;;-145.50;100.00;65435.88;5067775;28;20654;-61
2022/09/09 02:19:25;;;;;;;2.90;1.98;;;;;;;-145.50;100.00;65435.88;5060512;28;20141;-61
2022/09/09 02:21:55;;;;;;;4.25;2.20;;;;;;;-145.50;100.00;65435.88;5066688;28;20105;-61
2022/09/09 02:24:22;;;;;;;3.55;2.03;;;;;;;-145.50;100.00;65435.88;5060665;28;20044;-61
2022/09/09 02:26:53;;;;;;;4.47;2.00;;;;;;;-145.50;100.00;65435.88;5068050;28;20101;-62
2022/09/09 02:29:24;;;;;;;2.60;2.13;;;;;;;-145.50;100.00;65435.88;5062435;28;20102;-61
2022/09/09 02:31:54;;;;;;;5.45;2.58;;;;;;;-145.50;100.00;65435.88;5062809;28;20064;-60
2022/09/09 02:34:24;;;;;;;3.03;2.28;;;;;;;-145.50;100.00;65435.88;5063559;28;20051;-61
2022/09/09 02:36:53;;;;;;;3.50;2.15;;;;;;;-145.50;100.00;65435.88;5068706;28;20052;-61
2022/09/09 02:39:20;;;;;;;3.33;2.33;;;;;;;-145.50;100.00;65435.88;5070538;28;20106;-60
2022/09/09 02:41:47;;;;;;;6.47;2.47;;;;;;;-145.50;100.00;65435.88;5064804;28;20459;-61
2022/09/09 02:44:17;;;;;;;5.07;2.42;;;;;;;-145.50;100.00;65435.88;5066493;28;20082;-61
2022/09/09 02:46:46;;;;;;;4.85;2.30;;;;;;;-145.50;100.00;65435.88;5061620;28;20070;-62
2022/09/09 02:49:24;;;;;;;5.50;3.05;;;;;;;-145.50;100.00;65435.88;5066784;28;20053;-61
2022/09/09 02:52:06;;;;;;;4.13;2.28;;;;;;;-145.50;100.00;65435.88;5059388;28;20106;-61
2022/09/09 02:54:36;;;;;;;3.95;2.17;;;;;;;-145.50;100.00;65435.88;5067929;28;20110;-60
2022/09/09 02:57:10;;;;;;;4.38;2.47;;;;;;;-145.50;100.00;65435.88;5053324;28;20052;-64
2022/09/09 02:59:38;;;;;;;4.40;2.33;;;;;;;-145.50;100.00;65435.88;5058993;28;20076;-60
2022/09/09 03:02:04;;;;;;;3.83;2.15;;;;;;;-145.50;100.00;65435.88;5069580;28;20416;-61
2022/09/09 03:04:31;;;;;;;4.07;2.20;;;;;;;-145.50;100.00;65435.88;5061054;28;20493;-61
2022/09/09 03:06:58;;;;;;;5.45;2.33;;;;;;;-145.50;100.00;65435.88;5067858;28;20059;-62
2022/09/09 03:09:25;;;;;;;3.55;2.28;;;;;;;-145.50;100.00;65435.88;5061096;28;20101;-62
2022/09/09 03:11:52;;;;;;;4.68;2.25;;;;;;;-145.50;100.00;65435.88;5067489;28;20048;-61
2022/09/09 03:14:21;;;;;;;4.88;2.30;;;;;;;-145.50;100.00;65435.88;5053333;28;20048;-61
2022/09/09 03:16:48;;;;;;;;;;;;;;;-145.50;100.00;65435.88;5068316;28;20049;-61
2022/09/09 03:19:14;;;;;;;2.97;2.00;;;;;;;-145.50;100.00;65435.88;5074993;28;19975;-61
2022/09/09 03:21:40;;;;;;;4.93;2.60;;;;;;;-145.50;100.00;65435.88;5061439;28;20094;-61
2022/09/09 03:24:07;;;;;;;4.43;2.60;;;;;;;-145.50;100.00;65435.88;5067944;28;20048;-61
2022/09/09 03:26:33;;;;;;;5.13;2.30;;;;;;;-145.50;100.00;65435.88;5050014;28;20053;-61
2022/09/09 03:29:00;;;;;;;4.78;2.60;;;;;;;-145.50;100.00;65435.88;5061961;28;20624;-61
2022/09/09 03:31:29;;;;;;;6.18;2.50;;;;;;;-145.50;100.00;65435.88;5058417;28;20052;-61
2022/09/09 03:33:59;;;;;;;5.90;2.70;;;;;;;-145.50;100.00;65435.88;5065160;28;20132;-61
2022/09/09 03:36:26;;;;;;;6.85;2.90;;;;;;;-145.50;100.00;65435.88;5067237;28;20106;-61
2022/09/09 03:38:54;;;;;;;6.55;2.80;;;;;;;-145.50;100.00;65435.88;5061707;28;20056;-61
2022/09/09 03:41:24;;;;;;;5.20;2.80;;;;;;;-145.50;100.00;65435.88;5058029;28;20049;-61
2022/09/09 03:43:51;;;;;;;4.97;3.03;;;;;;;-145.50;100.00;65435.88;5059952;28;20073;-61
2022/09/09 03:46:22;;;;;;;6.38;3.00;;;;;;;-145.50;100.00;65435.88;5076123;28;20473;-61
2022/09/09 03:48:49;;;;;;;7.95;2.90;;;;;;;-145.50;100.00;65435.88;5056164;28;20106;-61
2022/09/09 03:51:15;;;;;;;8.20;3.10;;;;;;;-145.50;100.00;65435.88;5067698;28;20067;-62
2022/09/09 03:53:42;;;;;;;4.90;2.95;;;;;;;-145.50;100.00;65435.88;5059937;28;20048;-61
2022/09/09 03:56:09;;;;;;;7.05;3.10;;;;;;;-145.50;100.00;65435.88;5054868;28;20488;-60
2022/09/09 03:58:37;;;;;;;6.75;2.80;;;;;;;-145.50;100.00;65435.88;5065267;28;20102;-61
2022/09/09 04:01:05;;;;;;;6.10;3.38;;;;;;;-145.50;100.00;65435.88;5067380;28;20048;-61
2022/09/09 04:03:32;;;;;;;6.82;3.30;;;;;;;-145.50;100.00;65435.88;5067120;28;20141;-61
2022/09/09 04:06:00;;;;;;;5.78;3.20;;;;;;;-145.50;100.00;65435.88;5068264;28;20489;-61
2022/09/09 04:08:26;;;;;;;5.43;3.40;;;;;;;-145.50;100.00;65435.88;5068519;28;20048;-61
2022/09/09 04:10:57;;;;;;;6.80;3.63;;;;;;;-145.50;100.00;65435.88;5070226;28;20493;-62
2022/09/09 04:13:25;;;;;;;8.68;3.10;;;;;;;-145.50;100.00;65435.88;5066123;28;20055;-61
2022/09/09 04:15:53;;;;;;;7.35;3.28;;;;;;;-145.50;100.00;65435.88;5070555;28;20044;-61
2022/09/09 04:18:20;;;;;;;;;;;;;;;-145.50;100.00;65435.88;5063801;28;20272;-61
2022/09/09 04:20:48;;;;;;;6.53;2.92;;;;;;;-145.50;100.00;65435.88;5074296;28;20009;-60
2022/09/09 04:23:15;;;;;;;8.30;3.70;;;;;;;-145.50;100.00;65435.88;5053035;28;20110;-62
2022/09/09 04:25:46;;;;;;;6.10;3.40;;;;;;;-145.50;100.00;65435.88;5069252;28;20048;-62
2022/09/09 04:28:17;;;;;;;8.20;3.25;;;;;;;-145.50;100.00;65435.88;5066477;28;20056;-61
2022/09/09 04:30:44;;;;;;;7.65;3.10;;;;;;;-145.50;100.00;65435.88;5072869;28;20044;-61
2022/09/09 04:33:11;;;;;;;6.47;2.75;;;;;;;-145.50;100.00;65435.88;5072069;28;20044;-61
2022/09/09 04:35:38;;;;;;;4.80;3.30;;;;;;;-145.50;100.00;65435.88;5064302;28;20052;-61
2022/09/09 04:38:09;;;;;;;5.57;2.95;;;;;;;-145.50;100.00;65435.88;5063342;28;20060;-62
2022/09/09 04:40:35;;;;;;;5.55;2.53;;;;;;;-145.50;100.00;65435.88;5065625;28;20049;-62
2022/09/09 04:43:04;;;;;;;7.60;2.60;;;;;;;-145.50;100.00;65435.88;5073853;28;20045;-61
2022/09/09 04:45:31;;;;;;;4.55;2.35;;;;;;;-145.50;100.00;65435.88;5064748;28;20052;-61
2022/09/09 04:47:57;;;;;;;7.35;2.63;;;;;;;-145.50;100.00;65435.88;5068584;28;20052;-61
2022/09/09 04:50:25;;;;;;;10.57;2.95;;;;;;;-145.50;100.00;65435.88;5060006;28;20729;-61
2022/09/09 04:52:51;;;;;;;6.30;2.75;;;;;;;-145.50;100.00;65435.88;5059146;28;20117;-61
2022/09/09 04:55:18;;;;;;;5.03;2.28;;;;;;;-145.50;100.00;65435.88;5076452;28;20052;-61
2022/09/09 04:57:44;;;;;;;6.68;2.38;;;;;;;-145.50;100.00;65435.88;5063379;28;20052;-62
2022/09/09 05:00:12;;;;;;;5.50;2.70;;;;;;;-145.50;100.00;65435.88;5067749;28;20045;-61
2022/09/09 05:02:39;;;;;;;4.60;2.20;;;;;;;-145.50;100.00;65435.88;5070723;28;20481;-61
2022/09/09 05:05:06;;;;;;;7.55;2.58;;;;;;;-145.50;100.00;65435.88;5063551;28;20052;-62
2022/09/09 05:07:32;;;;;;;5.65;2.50;;;;;;;-145.50;100.00;65435.88;5063673;28;20087;-61
2022/09/09 05:09:59;;;;;;;3.70;2.13;;;;;;;-145.50;100.00;65435.88;5061811;28;20689;-61
2022/09/09 05:12:25;;;;;;;9.10;2.72;;;;;;;-145.50;100.00;65435.88;5067614;28;20055;-61
2022/09/09 05:14:52;;;;;;;9.55;2.47;;;;;;;-145.50;100.00;65435.88;5062079;28;20044;-61
2022/09/09 05:17:18;;;;;;;6.18;2.40;;;;;;;-145.50;100.00;65435.88;5072445;28;20075;-60
2022/09/09 05:19:45;;;;;;;6.30;2.33;;;;;;;-145.50;100.00;65435.88;5057451;28;20070;-61
2022/09/09 05:22:14;;;;;;;10.05;2.50;;;;;;;-145.50;100.00;65435.88;5060332;28;20083;-61
2022/09/09 05:24:40;;;;;;;11.00;2.70;;;;;;;-145.50;100.00;65435.88;5069555;28;20049;-61
2022/09/09 05:27:07;;;;;;;7.07;2.60;;;;;;;-145.50;100.00;65435.88;5061201;28;20102;-62
2022/09/09 05:29:33;;;;;;;9.95;2.67;;;;;;;-145.50;100.00;65435.88;5068993;28;20118;-62
2022/09/09 05:32:00;;;;;;;5.97;2.45;;;;;;;-145.50;100.00;65435.88;5057791;28;20134;-61
2022/09/09 05:34:26;;;;;;;7.88;2.97;;;;;;;-145.50;100.00;65435.88;5064238;28;20044;-60
2022/09/09 05:36:53;;;;;;;8.00;2.58;;;;;;;-145.50;100.00;65435.88;5069816;28;20102;-62
2022/09/09 05:39:19;;;;;;;10.30;3.42;;;;;;;-145.50;100.00;65435.88;5064299;28;20056;-61
2022/09/09 05:41:46;;;;;;;11.65;2.63;;;;;;;-145.50;100.00;65435.88;5077002;28;20550;-61
2022/09/09 05:44:13;;;;;;;6.85;1.92;;;;;;;-145.50;100.00;65435.88;5067798;28;20049;-61
2022/09/09 05:46:39;;;;;;;7.78;2.42;;;;;;;-145.50;100.00;65435.88;5061271;28;20052;-62
2022/09/09 05:49:06;;;;;;;9.57;3.92;;;;;;;-145.50;100.00;65435.88;5061250;28;20041;-61
2022/09/09 05:51:32;;;;;;;7.40;2.65;;;;;;;-145.50;100.00;65435.88;5067450;28;20093;-61
2022/09/09 05:53:58;;;;;;;6.53;2.70;;;;;;;-145.50;100.00;65435.88;5056462;28;20553;-61
2022/09/09 05:56:28;;;;;;;9.85;2.63;;;;;;;-145.50;100.00;65435.88;5061473;28;20064;-61
2022/09/09 05:58:55;;;;;;;6.80;2.70;;;;;;;-145.50;100.00;65435.88;5069877;28;20052;-61
2022/09/09 06:01:25;;;;;;;11.10;2.93;;;;;;;-145.50;100.00;65435.88;5051907;28;20079;-62
2022/09/09 06:03:52;;;;;;;8.73;3.15;;;;;;;-145.50;100.00;65435.88;5069880;28;20439;-62
2022/09/09 06:06:21;;;;;;;10.65;2.83;;;;;;;-145.50;100.00;65435.88;5062409;28;20044;-60
2022/09/09 06:08:51;;;;;;;12.07;2.60;;;;;;;-145.50;100.00;65435.88;5073887;28;20048;-62
2022/09/09 06:11:20;;;;;;;7.85;2.53;;;;;;;-145.50;100.00;65435.88;5057813;28;20048;-61
2022/09/09 06:13:47;;;;;;;7.13;2.45;;;;;;;-145.50;100.00;65435.88;5058771;28;20489;-61
2022/09/09 06:16:16;;;;;;;7.32;2.70;;;;;;;-145.50;100.00;65435.88;5063659;28;20075;-61
2022/09/09 06:18:43;;;;;;;8.63;2.63;;;;;;;-145.50;100.00;65435.88;5062350;28;20159;-61
2022/09/09 06:21:37;;;;;;;6.30;2.13;;;;;;;-145.50;100.00;65435.88;5061193;28;20052;-61
2022/09/09 06:24:04;;;;;;;9.55;2.50;;;;;;;-145.50;100.00;65435.88;5064104;28;20154;-61
2022/09/09 06:26:33;;;;;;;8.38;2.88;;;;;;;-145.50;100.00;65435.88;5074009;28;20052;-62
2022/09/09 06:29:02;;;;;;;7.45;2.28;;;;;;;-145.50;100.00;65435.88;5055014;28;20420;-62
2022/09/09 06:31:30;;;;;;;10.57;2.65;;;;;;;-145.50;100.00;65435.88;5061796;28;20048;-62
2022/09/09 06:33:58;;;;;;;12.00;2.72;;;;;;;-145.50;100.00;65435.88;5077405;28;20049;-61
2022/09/09 06:36:27;;;;;;;10.50;3.15;;;;;;;-145.50;100.00;65435.88;5048382;28;20533;-62
2022/09/09 06:38:54;;;;;;;10.10;2.42;;;;;;;-145.50;100.00;65435.88;5052441;28;20063;-62
2022/09/09 06:41:23;;;;;;;7.53;2.53;;;;;;;-145.50;100.00;65435.88;5048933;28;20052;-62
2022/09/09 06:43:49;;;;;;;11.65;2.58;;;;;;;-145.50;100.00;65435.88;5051997;28;20312;-62
2022/09/09 06:46:21;;;;;;;6.25;2.22;;;;;;;-145.50;100.00;65435.88;5052809;28;20146;-62
2022/09/09 06:48:48;;;;;;;12.25;2.63;;;;;;;-145.50;100.00;65435.88;5059557;28;20053;-62
2022/09/09 06:51:22;;;;;;;9.80;2.42;;;;;;;-145.50;100.00;65435.88;5061948;28;20058;-61
2022/09/09 06:53:54;;;;;;;10.25;2.20;;;;;;;-145.50;100.00;65435.88;5073038;28;20056;-62
2022/09/09 06:56:35;;;;;;;6.68;2.42;;;;;;;-145.50;100.00;65435.88;5063508;28;20044;-61
2022/09/09 06:59:04;;;;;;;6.20;2.33;;;;;;;-145.50;100.00;65435.88;5054652;28;20048;-62
2022/09/09 07:01:33;;;;;;;8.18;2.38;;;;;;;-145.50;100.00;65435.88;5074269;28;20074;-63
2022/09/09 07:04:00;;;;;;;6.15;2.25;;;;;;;-145.50;100.00;65435.88;5066835;28;20048;-62
2022/09/09 07:06:32;;;;;;;6.32;2.17;;;;;;;-145.50;100.00;65435.88;5065109;28;20130;-62
2022/09/09 07:09:01;;;;;;;9.85;2.33;;;;;;;-145.50;100.00;65435.88;5064102;28;20063;-63
2022/09/09 07:11:29;;;;;;;6.10;2.20;;;;;;;-145.50;100.00;65435.88;5057214;28;20895;-62
2022/09/09 07:13:57;;;;;;;10.52;2.05;;;;;;;-145.50;100.00;65435.88;5060554;28;20082;-62
2022/09/09 07:16:24;;;;;;;9.50;2.58;;;;;;;-145.50;100.00;65435.88;5063900;28;20126;-62
2022/09/09 07:18:52;;;;;;;5.78;2.20;;;;;;;-145.50;100.00;65435.88;5064820;28;20040;-63
2022/09/09 07:21:19;;;;;;;8.40;2.53;;;;;;;-145.50;100.00;65435.88;5064404;28;20052;-62
2022/09/09 07:23:45;;;;;;;8.80;2.53;;;;;;;-145.50;100.00;65435.88;5060854;28;20057;-62
2022/09/09 07:26:19;;;;;;;8.95;2.45;;;;;;;-145.50;100.00;65435.88;5053585;28;20083;-62
2022/09/09 07:28:46;;;;;;;12.15;2.63;;;;;;;-145.50;100.00;65435.88;5064564;28;20056;-62
2022/09/09 07:31:34;;;;;;;9.63;2.47;;;;;;;-145.50;100.00;65435.88;5060230;28;20041;-62
2022/09/09 07:34:02;;;;;;;;;;;;;;;-145.50;100.00;65435.88;5063668;28;20055;-62
2022/09/09 07:36:30;;;;;;;9.68;2.75;;;;;;;-145.50;100.00;65435.88;5070475;28;19924;-63
2022/09/09 07:39:07;;;;;;;13.88;2.83;;;;;;;-145.50;100.00;65435.88;5053635;28;20128;-63
2022/09/09 07:41:40;;;;;;;12.38;3.53;;;;;;;-145.50;100.00;65435.88;5065151;28;20049;-62
2022/09/09 07:44:10;;;;;;;13.45;2.70;;;;;;;-145.50;100.00;65435.88;5061872;28;20056;-62
2022/09/09 07:46:39;;;;;;;10.23;2.40;;;;;;;-145.50;100.00;65435.88;5078326;28;20671;-64
2022/09/09 07:49:06;;;;;;;8.82;2.47;;;;;;;-145.50;100.00;65435.88;5056987;28;20040;-63
2022/09/09 07:51:35;;;;;;;11.57;2.72;;;;;;;-145.50;100.00;65435.88;5064833;28;20056;-63
2022/09/09 07:54:05;;;;;;;5.18;2.13;;;;;;;-145.50;100.00;65435.88;5062552;28;20125;-63
2022/09/09 07:56:33;;;;;;;9.77;3.13;;;;;;;-145.50;100.00;65435.88;5069028;28;20193;-64
2022/09/09 07:58:59;;;;;;;11.85;2.50;;;;;;;-145.50;100.00;65435.88;5068442;28;21268;-63
2022/09/09 08:01:29;;;;;;;15.25;2.70;;;;;;;-145.50;100.00;65435.88;5063360;28;20462;-64
2022/09/09 08:04:04;;;;;;;9.77;2.40;;;;;;;-145.50;100.00;65435.88;5071462;28;20536;-63
2022/09/09 08:06:40;;;;;;;8.30;2.28;;;;;;;-145.50;100.00;65435.88;5055089;28;20630;-63
2022/09/09 08:09:08;;;;;;;8.15;2.22;;;;;;;-145.50;100.00;65435.88;5069139;28;20040;-63
2022/09/09 08:11:35;;;;;;;9.13;2.22;;;;;;;-145.50;100.00;65435.88;5060378;28;20693;-63
2022/09/09 08:14:07;;;;;;;6.43;2.10;;;;;;;-145.50;100.00;65435.88;5060733;28;20056;-63
2022/09/09 08:16:36;;;;;;;9.75;2.63;;;;;;;-145.50;100.00;65435.88;5064251;28;20055;-63
2022/09/09 08:19:03;;;;;;;11.00;2.88;;;;;;;-145.50;100.00;65435.88;5063499;28;20051;-63
2022/09/09 08:21:32;;;;;;;8.02;1.95;;;;;;;-145.50;100.00;65435.88;5064531;28;20072;-63
2022/09/09 08:24:01;;;;;;;9.18;2.40;;;;;;;-145.50;100.00;65435.88;5060621;28;20049;-63
2022/09/09 08:26:34;;;;;;;9.65;2.13;;;;;;;-145.50;100.00;65435.88;5086411;28;20048;-64
2022/09/09 08:29:02;;;;;;;11.90;2.60;;;;;;;-145.50;100.00;65435.88;5059856;28;20455;-63
2022/09/09 08:31:33;;;;;;;7.88;2.10;;;;;;;-145.50;100.00;65435.88;5073925;28;20555;-63
2022/09/09 08:34:01;;;;;;;10.73;2.03;;;;;;;-145.50;100.00;65435.88;5059289;28;20107;-63
2022/09/09 08:36:29;;;;;;;6.93;2.45;;;;;;;-145.50;100.00;65435.88;5059730;28;20102;-63
2022/09/09 08:38:57;;;;;;;10.82;2.38;;;;;;;-145.50;100.00;65435.88;5075625;28;20079;-62
2022/09/09 08:41:48;;;;;;;7.90;2.00;;;;;;;-145.50;100.00;65435.88;5065997;28;20122;-63
2022/09/09 08:44:45;;;;;;;8.82;2.50;;;;;;;-145.50;100.00;65435.88;5063517;28;20056;-62
2022/09/09 08:47:32;;;;;;;5.35;2.20;;;;;;;-145.50;100.00;65435.88;5051140;28;20048;-62
2022/09/09 08:50:19;;;;;;;7.63;2.40;;;;;;;-145.50;100.00;65435.88;5058689;28;20487;-63
2022/09/09 08:53:09;;;;;;;7.90;2.33;;;;;;;-145.50;100.00;65435.88;5059985;28;20052;-63
2022/09/09 08:55:51;;;;;;;10.60;2.25;;;;;;;-145.50;100.00;65435.88;5064823;28;20076;-63
2022/09/09 08:58:27;;;;;;;7.80;2.10;;;;;;;-145.50;100.00;65435.88;5059352;28;20552;-64
2022/09/09 09:01:03;;;;;;;8.68;1.95;;;;;;;-145.50;100.00;65435.88;5066155;28;20052;-62
2022/09/09 09:03:41;;;;;;;7.45;1.92;;;;;;;-145.50;100.00;65435.88;5054594;28;20059;-63
2022/09/09 09:06:45;;;;;;;10.85;1.85;;;;;;;-145.50;100.00;65435.88;5067411;28;20044;-64
2022/09/09 09:09:38;;;;;;;6.93;1.70;;;;;;;-145.50;100.00;65435.88;5060425;28;20087;-63
2022/09/09 09:12:20;;;;;;;6.05;1.50;;;;;;;-145.50;100.00;65435.88;5062635;28;20040;-62
2022/09/09 09:14:49;;;;;;;7.30;1.92;;;;;;;-145.50;100.00;65435.88;5055555;28;20056;-63
2022/09/09 09:17:19;;;;;;;8.90;1.90;;;;;;;-145.50;100.00;65435.88;5064011;28;20106;-62
2022/09/09 09:19:47;;;;;;;5.35;1.50;;;;;;;-145.50;100.00;65435.88;5067257;28;20056;-61
2022/09/09 09:22:25;;;;;;;10.63;1.80;;;;;;;-145.50;100.00;65435.88;5060980;28;20463;-63
2022/09/09 09:24:51;;;;;;;7.13;1.60;;;;;;;-145.50;100.00;65435.88;5064389;28;20048;-61
2022/09/09 09:27:39;;;;;;;6.45;1.30;;;;;;;-145.50;100.00;65435.88;5061365;28;22079;-62
2022/09/09 09:30:17;;;;;;;5.93;1.67;;;;;;;-145.50;100.00;65435.88;5064936;28;20763;-62
2022/09/09 09:33:00;;;;;;;6.07;1.42;;;;;;;-145.50;100.00;65435.88;5061092;28;20114;-62
2022/09/09 09:35:27;;;;;;;6.95;1.70;;;;;;;-145.50;100.00;65435.88;5067077;28;20049;-63
2022/09/09 09:37:54;;;;;;;6.30;1.80;;;;;;;-145.50;100.00;65435.88;5063002;28;20094;-63
2022/09/09 09:40:50;;;;;;;7.78;1.70;;;;;;;-145.50;100.00;65435.88;5066097;28;20549;-62
2022/09/09 09:43:21;;;;;;;7.65;1.42;;;;;;;-145.50;100.00;65435.88;5048672;28;20373;-63
2022/09/09 09:45:48;;;;;;;4.80;1.38;;;;;;;-145.50;100.00;65435.88;5066779;28;20102;-62
2022/09/09 09:48:34;;;;;;;8.13;1.52;;;;;;;-145.50;100.00;65435.88;5060236;28;20092;-62
2022/09/09 09:51:16;;;;;;;8.18;2.03;;;;;;;-145.50;100.00;65435.88;5064074;28;20561;-62
2022/09/09 09:53:43;;;;;;;6.00;1.48;;;;;;;-145.50;100.00;65435.88;5065511;28;20044;-63
2022/09/09 09:56:12;;;;;;;6.75;1.63;;;;;;;-145.50;100.00;65435.88;5050340;28;20060;-63
2022/09/09 09:58:45;;;;;;;4.82;1.15;;;;;;;-145.50;100.00;65435.88;5060561;28;20700;-63
2022/09/09 10:01:24;;;;;;;6.15;1.60;;;;;;;-145.50;100.00;65435.88;5062229;28;20539;-63
2022/09/09 10:03:52;;;;;;;9.88;1.70;;;;;;;-145.50;100.00;65435.88;5065709;28;20048;-63
2022/09/09 10:06:33;;;;;;;7.07;1.40;;;;;;;-145.50;100.00;65435.88;5058903;28;20098;-62
2022/09/09 10:09:02;;;;;;;7.15;1.50;;;;;;;-145.50;100.00;65435.88;5063748;28;20390;-62
2022/09/09 10:11:42;;;;;;;7.93;1.67;;;;;;;-145.50;100.00;65435.88;5058285;28;20040;-62
2022/09/09 10:14:35;;;;;;;10.23;1.50;;;;;;;-145.50;100.00;65435.88;5065697;28;20048;-62
2022/09/09 10:17:38;;;;;;;4.47;1.35;;;;;;;-145.50;100.00;65435.88;5056140;28;20044;-63
2022/09/09 10:20:23;;;;;;;6.97;1.40;;;;;;;-145.50;100.00;65435.88;5072434;28;20047;-62
2022/09/09 10:22:52;;;;;;;5.22;1.67;;;;;;;-145.50;100.00;65435.88;5063291;28;20844;-63
2022/09/09 10:25:37;;;;;;;7.32;1.60;;;;;;;-145.50;100.00;65435.88;5059361;28;20393;-62
2022/09/09 10:28:44;;;;;;;10.18;1.83;;;;;;;-145.50;100.00;65435.88;5065847;28;20637;-62
2022/09/09 10:31:23;;;;;;;6.63;1.35;;;;;;;-145.50;100.00;65435.88;5065325;28;20051;-63
2022/09/09 10:34:19;;;;;;;5.20;1.33;;;;;;;-145.50;100.00;65435.88;5060114;28;20414;-62
2022/09/09 10:36:49;;;;;;;7.35;1.40;;;;;;;-145.50;100.00;65435.88;5062653;28;20060;-63
2022/09/09 10:39:37;;;;;;;7.88;1.40;;;;;;;-145.50;100.00;65435.88;5071095;28;20048;-62
2022/09/09 10:42:12;;;;;;;7.03;1.45;;;;;;;-145.50;100.00;65435.88;5067201;28;20179;-63
2022/09/09 10:45:04;;;;;;;7.55;2.22;;;;;;;-145.50;100.00;65435.88;5066257;28;20680;-62
2022/09/09 10:47:37;;;;;;;7.60;1.60;;;;;;;-145.50;100.00;65435.88;5052067;28;20509;-62
2022/09/09 10:50:28;;;;;;;5.90;1.38;;;;;;;-145.50;100.00;65435.88;5065690;28;20079;-62
2022/09/09 10:53:47;;;;;;;5.43;1.63;;;;;;;-145.50;100.00;65435.88;5038842;28;20060;-62
2022/09/09 10:56:18;;;;;;;9.63;1.80;;;;;;;-145.50;100.00;65435.88;5065086;28;20041;-62
2022/09/09 10:58:50;;;;;;;11.40;2.17;;;;;;;-145.50;100.00;65435.88;5055949;28;20121;-62
2022/09/09 11:01:20;;;;;;;5.82;1.45;;;;;;;-145.50;100.00;65435.88;5061827;28;20119;-62
2022/09/09 11:03:55;;;;;;;10.38;1.90;;;;;;;-145.50;100.00;65435.88;5055625;28;20048;-64
2022/09/09 11:06:30;;;;;;;7.40;1.50;;;;;;;-145.50;100.00;65435.88;5050987;28;20599;-62
2022/09/09 11:09:01;;;;;;;8.23;2.03;;;;;;;-145.50;100.00;65435.88;5058935;28;20102;-63
2022/09/09 11:11:41;;;;;;;4.90;1.30;;;;;;;-145.50;100.00;65435.88;5070201;28;20558;-62
2022/09/09 11:14:21;;;;;;;8.90;1.85;;;;;;;-145.50;100.00;65435.88;5070801;28;20052;-62
2022/09/09 11:16:52;;;;;;;6.25;1.35;;;;;;;-145.50;100.00;65435.88;5065406;28;20048;-63
2022/09/09 11:19:34;;;;;;;7.45;1.77;;;;;;;-145.50;100.00;65435.88;5064860;28;20147;-63
2022/09/09 11:22:38;;;;;;;8.95;1.88;;;;;;;-145.50;100.00;65435.88;5054079;28;20037;-62
2022/09/09 11:25:15;;;;;;;8.40;1.50;;;;;;;-145.50;100.00;65435.88;5067797;28;20083;-65
2022/09/09 11:28:01;;;;;;;7.40;1.77;;;;;;;-145.50;100.00;65435.88;5056583;28;20420;-63
2022/09/09 11:30:50;;;;;;;10.20;1.70;;;;;;;-145.50;100.00;65435.88;5062851;28;20052;-62
2022/09/09 11:33:34;;;;;;;6.53;1.67;;;;;;;-145.50;100.00;65435.88;5058307;28;20040;-63
2022/09/09 11:36:16;;;;;;;9.10;1.83;;;;;;;-145.50;100.00;65435.88;5062375;28;20122;-62
2022/09/09 11:38:59;;;;;;;7.00;1.63;;;;;;;-145.50;100.00;65435.88;5060307;28;20515;-62